Latest Weather Observations for Warburton

IDD60801

Issued at 6:35 pm CST Wednesday 23 April 2014 (issued every 30 minutes, with the page automatically refreshed every 10 minutes)

About weather observations | Map of weather stations | Latest weather observations for NT | Other Formats
Station Details ID: 013011 Name: WARBURTON AIRFIELD Lat: -26.13 Lon: 126.58 Height: 459.0 m
Data from the previous 72 hours. | See also: Recent months at Warburton
Date/Time
CST
Temp
°C
App
Temp
°C
Dew
Point
Rel
Hum
%
Delta-T
°C
Wind Press
QNH
hPa
Press
MSL
hPa
Rain
since 9 am
mm
Dir
 
Spd
km/h
Gust
km/h
Spd
kts
Gust
kts
23/06:30pm 29.3 26.4 6.7 24 12.3 SSE 11 13 6 7 1014.9 - 0.0
23/05:00pm 31.3 29.0 5.7 20 13.9 ESE 7 15 4 8 1014.3 - 0.0
23/04:30pm 31.9 28.4 5.4 19 14.3 SSW 13 17 7 9 1014.4 1012.3 0.0
23/04:00pm 31.8 29.0 6.8 21 13.8 SSW 11 20 6 11 1014.7 - 0.0
23/03:30pm 31.4 29.3 5.8 20 13.9 E 6 13 3 7 1014.8 - 0.0
23/03:00pm 31.2 28.8 7.0 22 13.4 S 9 15 5 8 1015.0 - 0.0
23/02:30pm 30.8 28.6 7.9 24 12.8 E 9 15 5 8 1015.3 - 0.0
23/02:00pm 31.0 29.4 8.1 24 12.9 ENE 6 13 3 7 1015.7 - 0.0
23/01:30pm 30.6 29.0 8.9 26 12.3 NNE 7 15 4 8 1016.2 1014.1 0.0
23/01:00pm 29.7 28.0 8.2 26 12.0 NNW 7 15 4 8 1017.0 - 0.0
23/12:30pm 28.9 27.3 8.6 28 11.4 SSE 7 15 4 8 1017.6 - 0.0
23/12:00pm 28.4 26.9 9.2 30 10.8 S 7 11 4 6 1018.0 - 0.0
23/11:30am 27.1 25.7 9.0 32 10.1 N 6 11 3 6 1018.4 - 0.0
23/10:30am 25.1 22.7 10.2 39 8.4 ENE 13 - 7 - - 1016.4 0.0
23/10:00am 23.9 21.5 9.9 41 7.8 ENE 13 19 7 10 1018.9 - 0.0
23/09:30am 22.3 19.4 9.8 45 6.9 ENE 15 19 8 10 1018.9 - 0.0
23/09:00am 21.7 19.9 9.3 45 6.8 ENE 9 15 5 8 1018.8 - 0.0
23/08:30am 19.6 16.4 8.6 49 5.9 E 15 20 8 11 1018.4 - 0.0
23/08:00am 18.2 15.4 8.5 53 5.1 ESE 13 19 7 10 1018.2 - 0.0
23/07:30am 17.5 14.7 8.6 56 4.7 E 13 20 7 11 1018.0 1015.8 0.0
23/07:00am 17.7 14.5 8.6 55 4.8 E 15 20 8 11 1017.9 - 0.0
23/06:30am 18.0 14.5 8.6 54 5.0 E 17 22 9 12 1017.8 - 0.0
23/06:00am 18.1 14.9 8.4 53 5.1 E 15 20 8 11 1017.9 - 0.0
23/05:30am 18.2 15.1 8.7 54 5.0 E 15 22 8 12 1017.9 - 0.0
23/05:00am 18.2 15.1 8.7 54 5.0 E 15 20 8 11 1018.0 - 0.0
23/04:30am 18.3 15.6 8.8 54 5.0 E 13 20 7 11 1017.9 1015.7 0.0
23/04:00am 18.5 15.4 8.7 53 5.2 ESE 15 19 8 10 1017.9 - 0.0
23/03:30am 18.9 15.8 8.8 52 5.4 ESE 15 22 8 12 1017.9 - 0.0
23/03:00am 19.1 15.7 9.0 52 5.4 E 17 22 9 12 1018.0 - 0.0
23/02:30am 19.0 15.9 8.9 52 5.4 ESE 15 19 8 10 1018.2 - 0.0
23/02:00am 19.2 16.2 9.4 53 5.3 ESE 15 20 8 11 1018.4 - 0.0
23/01:30am 19.4 16.5 9.6 53 5.3 ESE 15 20 8 11 1018.5 1016.4 0.0
23/01:00am 19.6 16.8 10.0 54 5.3 ESE 15 20 8 11 1018.5 - 0.0
23/12:30am 19.7 16.9 10.1 54 5.3 ESE 15 19 8 10 1018.7 - 0.0
23/12:00am 20.2 17.1 10.3 53 5.5 SE 17 20 9 11 1018.8 - 0.0
 
Date/Time
CST
Temp
°C
App
Temp
°C
Dew
Point
Rel
Hum
%
Delta-T
°C
Wind Press
QNH
hPa
Press
MSL
hPa
Rain
since 9 am
mm
Dir
 
Spd
km/h
Gust
km/h
Spd
kts
Gust
kts
22/11:30pm 20.7 17.6 10.2 51 5.8 SE 17 22 9 12 1018.9 - 0.0
22/11:00pm 21.1 18.8 10.3 50 6.0 SE 13 17 7 9 1019.2 - 0.0
22/10:30pm 21.9 19.6 10.4 48 6.4 ESE 13 20 7 11 1019.2 1017.0 0.0
22/10:00pm 22.1 19.8 10.3 47 6.6 SE 13 15 7 8 1018.8 - 0.0
22/09:30pm 22.0 20.1 10.5 48 6.4 SE 11 15 6 8 1018.8 - 0.0
22/09:00pm 22.4 20.9 10.5 47 6.7 ESE 9 11 5 6 1018.6 - 0.0
22/08:30pm 23.1 21.5 10.2 44 7.2 ESE 9 13 5 7 1018.3 - 0.0
22/08:00pm 24.4 22.3 9.9 40 8.1 SE 11 15 6 8 1018.0 - 0.0
22/07:30pm 25.1 22.9 9.4 37 8.7 SE 11 15 6 8 1017.8 1015.6 0.0
22/07:00pm 25.9 23.7 9.3 35 9.3 SE 11 17 6 9 1017.6 - 0.0
22/06:30pm 27.2 24.5 9.1 32 10.1 SE 13 17 7 9 1017.3 - 0.0
22/06:00pm 27.9 25.5 8.7 30 10.7 SE 11 17 6 9 1017.0 - 0.0
22/05:30pm 28.7 25.7 9.4 30 11.0 SSE 15 20 8 11 1016.9 - 0.0
22/05:00pm 28.7 25.6 8.9 29 11.1 SE 15 20 8 11 1017.0 - 0.0
22/04:30pm 28.8 25.5 9.5 30 11.0 SE 17 24 9 13 1016.9 1014.7 0.0
22/04:00pm 28.9 25.7 10.1 31 10.8 ESE 17 28 9 15 1017.0 - 0.0
22/03:30pm 28.6 25.7 9.8 31 10.7 SE 15 26 8 14 1017.0 - 0.0
22/03:00pm 28.5 25.8 10.2 32 10.5 ESE 15 35 8 19 1017.1 - 0.0
22/02:30pm 28.0 25.3 10.2 33 10.2 SE 15 22 8 12 1017.3 - 0.0
22/02:00pm 27.6 25.0 10.8 35 9.7 ESE 15 26 8 14 1017.7 - 0.0
22/01:30pm 26.6 23.6 10.7 37 9.1 E 17 24 9 13 1018.1 1016.0 0.0
22/12:00pm 24.5 21.3 11.8 45 7.4 E 20 26 11 14 1019.8 - 0.0
22/11:30am 23.5 20.2 11.5 47 6.9 E 20 28 11 15 1020.0 - 0.0
22/11:00am 22.8 19.2 11.8 50 6.3 ESE 22 30 12 16 1020.3 - 0.0
22/10:30am 21.3 17.2 11.6 54 5.5 ESE 24 30 13 16 1020.5 1018.4 0.0
22/10:00am 20.1 15.3 11.6 58 4.8 ESE 28 37 15 20 1020.6 - 0.0
22/09:30am 19.6 15.5 12.6 64 4.0 ESE 26 35 14 19 1020.5 - 0.0
22/09:00am 18.5 14.4 12.7 69 3.3 ESE 26 35 14 19 1020.4 - 0.0
22/08:30am 17.8 14.2 12.9 73 2.8 ESE 24 35 13 19 1020.2 - 0.0
22/08:00am 17.3 14.4 12.8 75 2.6 ESE 20 28 11 15 1019.7 - 0.0
22/07:30am 16.9 14.1 12.6 76 2.4 ESE 19 28 10 15 1019.3 1017.1 0.0
22/07:00am 17.1 14.1 12.4 74 2.7 ESE 20 28 11 15 1019.0 - 0.0
22/06:30am 17.6 14.6 12.5 72 2.9 SE 20 26 11 14 1018.8 - 0.0
22/06:00am 17.7 15.2 12.4 71 3.0 SE 17 24 9 13 1018.6 - 0.0
22/05:30am 17.6 16.3 12.5 72 2.9 SSE 11 20 6 11 1018.4 - 0.0
22/05:00am 17.9 16.2 12.4 70 3.1 SSE 13 20 7 11 1018.0 - 0.0
22/04:30am 18.3 17.0 12.5 69 3.3 S 11 15 6 8 1017.9 1015.7 0.0
22/04:00am 18.7 17.0 12.5 67 3.5 SSE 13 17 7 9 1017.8 - 0.0
22/03:30am 18.9 17.6 12.6 67 3.6 SE 11 17 6 9 1017.9 - 0.0
22/03:00am 19.2 17.5 12.5 65 3.8 SSE 13 15 7 8 1017.9 - 0.0
22/02:30am 19.6 17.5 12.4 63 4.1 SSE 15 20 8 11 1017.6 - 0.0
22/02:00am 20.1 17.6 12.3 61 4.5 SSE 17 24 9 13 1017.6 - 0.0
22/01:30am 19.7 17.9 10.9 57 4.9 S 11 15 6 8 1017.6 1015.4 0.0
22/01:00am 20.7 18.5 10.8 53 5.5 S 13 17 7 9 1017.5 - 0.0
22/12:30am 21.6 18.7 9.5 46 6.6 SSE 15 20 8 11 1017.1 - 0.0
22/12:00am 22.3 18.5 7.7 39 7.8 SSE 17 24 9 13 1017.0 - 0.0
 
Date/Time
CST
Temp
°C
App
Temp
°C
Dew
Point
Rel
Hum
%
Delta-T
°C
Wind Press
QNH
hPa
Press
MSL
hPa
Rain
since 9 am
mm
Dir
 
Spd
km/h
Gust
km/h
Spd
kts
Gust
kts
21/11:30pm 23.1 19.0 6.0 33 8.9 SSE 17 28 9 15 1016.9 - 0.0
21/11:00pm 19.2 17.5 8.2 49 5.8 E 7 9 4 5 1016.3 - 0.0
21/10:30pm 20.1 18.5 6.4 41 7.0 S 4 7 2 4 1016.2 1014.1 0.0
21/09:00pm 22.6 20.2 5.1 32 8.9 NE 7 9 4 5 1015.3 - 0.0
21/08:30pm 22.9 21.8 4.9 31 9.1 CALM 0 0 0 0 1015.3 - 0.0
21/08:00pm 24.0 21.8 5.4 30 9.6 NW 6 7 3 4 1015.0 - 0.0
21/07:30pm 25.6 23.4 6.3 29 10.2 NW 7 7 4 4 1014.6 1012.4 0.0
21/07:00pm 28.3 25.3 1.7 18 13.2 NW 7 9 4 5 1014.2 - 0.0
21/06:30pm 30.4 26.7 -0.1 14 14.9 WNW 9 13 5 7 1013.9 - 0.0
21/06:00pm 32.0 28.2 -0.9 12 16.0 WNW 9 15 5 8 1013.8 - 0.0
21/05:30pm 32.6 28.3 -1.7 11 16.6 WNW 11 17 6 9 1013.6 - 0.0
21/05:00pm 32.6 27.9 -1.7 11 16.6 WNW 13 22 7 12 1013.6 - 0.0
21/04:30pm 32.8 27.8 -1.5 11 16.6 WNW 15 24 8 13 1013.6 1011.4 0.0
21/04:00pm 32.8 28.1 -1.5 11 16.6 WNW 13 22 7 12 1013.7 - 0.0
21/03:30pm 32.7 26.9 -1.6 11 16.6 W 19 28 10 15 1013.7 - 0.0
21/03:00pm 32.7 28.2 -0.4 12 16.3 NW 13 28 7 15 1013.8 - 0.0
21/02:30pm 32.5 26.7 -1.7 11 16.5 WNW 19 28 10 15 1014.0 - 0.0
21/02:00pm 31.7 26.1 -0.1 13 15.7 WNW 19 32 10 17 1014.3 - 0.0
21/01:30pm 32.3 25.7 -0.7 12 16.2 WNW 24 41 13 22 1015.1 1012.9 0.0
21/01:00pm 31.5 26.3 -0.2 13 15.6 WNW 17 32 9 17 1015.6 - 0.0
21/12:30pm 31.5 25.5 0.8 14 15.3 NW 22 32 12 17 1016.1 - 0.0
21/12:00pm 30.7 23.9 1.1 15 14.8 NW 26 35 14 19 1016.5 - 0.0
21/11:30am 30.4 24.1 1.8 16 14.4 NW 24 35 13 19 1016.9 - 0.0
21/11:00am 29.7 23.1 2.1 17 13.9 N 26 35 14 19 1016.5 - 0.0
21/10:30am 28.0 21.7 1.5 18 13.1 NNW 24 35 13 19 1016.9 1014.7 0.0
21/10:00am 26.7 20.0 1.2 19 12.4 N 26 35 14 19 1016.9 - 0.0
21/09:30am 26.4 20.5 1.7 20 12.1 N 22 32 12 17 1016.7 - 0.0
21/08:00am 19.7 15.6 2.1 31 8.3 N 13 17 7 9 1015.9 - 0.0
21/07:30am 18.7 14.2 2.1 33 7.8 NNE 15 17 8 9 1015.6 1013.4 0.0
21/07:00am 18.8 14.7 2.2 33 7.8 N 13 17 7 9 1015.4 - 0.0
21/06:30am 19.6 15.1 2.0 31 8.3 N 15 19 8 10 1015.3 - 0.0
21/06:00am 19.9 15.3 1.8 30 8.5 N 15 19 8 10 1015.2 - 0.0
21/05:30am 20.4 16.2 1.8 29 8.8 N 13 17 7 9 1014.9 - 0.0
21/05:00am 19.9 15.7 1.8 30 8.5 N 13 17 7 9 1014.6 - 0.0
21/04:30am 20.5 16.0 1.9 29 8.8 N 15 17 8 9 1014.4 1012.3 0.0
21/04:00am 20.6 16.4 1.5 28 9.0 N 13 17 7 9 1014.3 - 0.0
21/03:30am 20.4 15.8 1.8 29 8.8 NNE 15 19 8 10 1014.1 - 0.0
21/03:00am 19.7 15.3 2.6 32 8.1 NNE 15 17 8 9 1014.2 - 0.0
21/02:30am 20.3 15.8 2.2 30 8.6 NNE 15 19 8 10 1014.6 - 0.0
21/02:00am 20.7 16.3 2.5 30 8.7 N 15 19 8 10 1014.7 - 0.0
21/01:30am 20.7 16.7 3.0 31 8.5 NNE 13 17 7 9 1014.7 1012.5 0.0
21/12:00am 21.1 17.7 3.8 32 8.5 NE 11 13 6 7 1015.1 - 0.0
 
Date/Time
CST
Temp
°C
App
Temp
°C
Dew
Point
Rel
Hum
%
Delta-T
°C
Wind Press
QNH
hPa
Press
MSL
hPa
Rain
since 9 am
mm
Dir
 
Spd
km/h
Gust
km/h
Spd
kts
Gust
kts
20/11:30pm 20.6 17.2 4.2 34 8.1 NE 11 11 6 6 1015.3 - 0.0
20/11:00pm 20.0 16.8 5.3 38 7.4 NE 11 13 6 7 1015.4 - 0.0
20/10:30pm 21.4 18.1 4.5 33 8.4 NNE 11 13 6 7 1015.4 1013.2 0.0
20/10:00pm 22.0 19.4 4.1 31 8.9 NE 7 9 4 5 1015.2 - 0.0
20/09:30pm 22.7 20.2 4.7 31 9.1 NE 7 9 4 5 1015.2 - 0.0
20/09:00pm 22.9 20.0 4.9 31 9.1 ENE 9 11 5 6 1015.1 - 0.0
20/08:30pm 22.8 19.6 5.3 32 9.0 NE 11 13 6 7 1015.0 - 0.0

Other Formats:

Comma delimited format used in spreadsheet applications
http://www.bom.gov.au/fwo/IDD60801/IDD60801.94457.axf

JavaScript Object Notation format (JSON) in row-major order
http://www.bom.gov.au/fwo/IDD60801/IDD60801.94457.json